Time,TemperatureF,DewpointF,PressureIn,WindDirection,WindDirectionDegrees,WindSpeedMPH,WindSpeedGustMPH,Humidity,HourlyPrecipIn,Conditions,Clouds,dailyrainin,SoftwareType,DateUTC
2013-01-29 00:03:00,38.7,37.1,29.78,North,0,0.0,0.0,94,0.02,,,0.00,WUHU216HW,2013-01-29 08:03:00,
2013-01-29 00:08:00,38.7,37.1,29.77,North,0,0.0,0.0,94,0.02,,,0.00,WUHU216HW,2013-01-29 08:08:00,
2013-01-29 00:13:00,38.7,37.1,29.78,North,0,0.0,0.0,94,0.02,,,0.00,WUHU216HW,2013-01-29 08:13:00,
2013-01-29 00:18:00,38.7,37.1,29.78,North,0,0.0,0.0,94,0.02,,,0.00,WUHU216HW,2013-01-29 08:18:00,
2013-01-29 00:23:00,38.7,37.1,29.77,North,0,0.0,0.0,94,0.00,,,0.00,WUHU216HW,2013-01-29 08:23:00,
2013-01-29 00:28:00,38.7,37.1,29.77,North,0,0.0,0.0,94,0.00,,,0.00,WUHU216HW,2013-01-29 08:28:00,
2013-01-29 00:33:00,38.7,37.1,29.77,North,0,0.0,0.0,94,0.00,,,0.00,WUHU216HW,2013-01-29 08:33:00,
2013-01-29 00:38:00,38.9,37.3,29.78,North,0,0.0,0.0,94,0.00,,,0.00,WUHU216HW,2013-01-29 08:38:00,
2013-01-29 00:43:00,38.7,37.1,29.78,North,0,0.0,0.0,94,0.00,,,0.00,WUHU216HW,2013-01-29 08:43:00,
2013-01-29 00:48:00,38.9,37.3,29.78,North,0,0.0,0.0,94,0.00,,,0.00,WUHU216HW,2013-01-29 08:48:00,
2013-01-29 00:53:00,38.9,37.3,29.78,North,0,0.0,0.0,94,0.00,,,0.00,WUHU216HW,2013-01-29 08:53:00,
2013-01-29 00:58:00,38.9,37.5,29.78,North,0,0.0,0.0,95,0.00,,,0.00,WUHU216HW,2013-01-29 08:58:00,
2013-01-29 01:03:00,39.1,37.7,29.78,North,0,0.0,0.0,95,0.00,,,0.00,WUHU216HW,2013-01-29 09:03:00,
2013-01-29 01:08:00,39.2,37.9,29.78,North,0,0.0,0.0,95,0.00,,,0.00,WUHU216HW,2013-01-29 09:08:00,
2013-01-29 01:13:00,39.2,37.9,29.78,North,0,0.0,0.0,95,0.00,,,0.00,WUHU216HW,2013-01-29 09:13:00,
2013-01-29 01:18:00,39.2,37.9,29.78,North,0,0.0,0.0,95,0.00,,,0.00,WUHU216HW,2013-01-29 09:18:00,
2013-01-29 01:23:00,39.2,37.6,29.78,North,0,0.0,0.0,94,0.00,,,0.00,WUHU216HW,2013-01-29 09:23:00,
2013-01-29 01:28:00,39.2,37.9,29.78,North,0,0.0,0.0,95,0.00,,,0.00,WUHU216HW,2013-01-29 09:28:00,
2013-01-29 01:33:00,39.4,38.1,29.78,North,0,0.0,0.0,95,0.00,,,0.00,WUHU216HW,2013-01-29 09:33:00,
2013-01-29 01:38:00,39.4,37.8,29.78,North,0,0.0,0.0,94,0.00,,,0.00,WUHU216HW,2013-01-29 09:38:00,
2013-01-29 01:43:00,39.6,38.3,29.79,North,0,0.0,0.0,95,0.00,,,0.00,WUHU216HW,2013-01-29 09:43:00,
2013-01-29 01:48:00,39.6,38.3,29.79,North,0,0.0,0.0,95,0.00,,,0.00,WUHU216HW,2013-01-29 09:48:00,
2013-01-29 01:53:00,39.8,38.4,29.79,North,0,0.0,0.0,95,0.00,,,0.00,WUHU216HW,2013-01-29 09:53:00,
2013-01-29 01:58:00,39.8,38.4,29.79,North,0,0.0,0.0,95,0.00,,,0.00,WUHU216HW,2013-01-29 09:58:00,
2013-01-29 02:03:00,39.8,38.4,29.79,North,0,0.0,0.0,95,0.00,,,0.00,WUHU216HW,2013-01-29 10:03:00,
2013-01-29 02:08:00,40.0,38.6,29.79,North,0,0.0,0.0,95,0.00,,,0.00,WUHU216HW,2013-01-29 10:08:00,
2013-01-29 02:13:00,40.0,38.6,29.79,North,0,0.0,0.0,95,0.00,,,0.00,WUHU216HW,2013-01-29 10:13:00,
2013-01-29 02:18:00,40.0,38.6,29.79,North,0,0.0,0.0,95,0.00,,,0.00,WUHU216HW,2013-01-29 10:18:00,
2013-01-29 02:23:00,40.1,38.8,29.80,North,0,0.0,0.0,95,0.00,,,0.00,WUHU216HW,2013-01-29 10:23:00,
2013-01-29 02:28:00,40.3,39.2,29.79,North,0,0.0,0.0,96,0.00,,,0.00,WUHU216HW,2013-01-29 10:28:00,
2013-01-29 02:33:00,40.3,39.2,29.79,North,0,0.0,0.0,96,0.00,,,0.00,WUHU216HW,2013-01-29 10:33:00,
2013-01-29 02:38:00,40.5,39.4,29.80,North,0,0.0,0.0,96,0.00,,,0.00,WUHU216HW,2013-01-29 10:38:00,
2013-01-29 02:43:00,40.7,39.6,29.80,North,0,0.0,0.0,96,0.00,,,0.00,WUHU216HW,2013-01-29 10:43:00,
2013-01-29 02:48:00,40.7,39.6,29.80,North,0,0.0,0.0,96,0.00,,,0.00,WUHU216HW,2013-01-29 10:48:00,
2013-01-29 02:53:00,40.7,39.6,29.80,North,0,0.0,0.0,96,0.00,,,0.00,WUHU216HW,2013-01-29 10:53:00,
2013-01-29 02:58:00,40.7,39.6,29.80,North,0,0.0,0.0,96,0.00,,,0.00,WUHU216HW,2013-01-29 10:58:00,
2013-01-29 03:03:00,40.7,39.3,29.81,North,0,0.0,0.0,95,0.00,,,0.00,WUHU216HW,2013-01-29 11:03:00,
2013-01-29 03:08:00,40.7,39.6,29.81,North,0,0.0,0.0,96,0.00,,,0.00,WUHU216HW,2013-01-29 11:08:00,
2013-01-29 03:13:00,40.7,39.6,29.81,North,0,0.0,0.0,96,0.00,,,0.00,WUHU216HW,2013-01-29 11:13:00,
2013-01-29 03:18:00,40.7,39.6,29.82,North,0,0.0,0.0,96,0.00,,,0.00,WUHU216HW,2013-01-29 11:18:00,
2013-01-29 03:23:00,40.7,39.6,29.82,North,0,0.0,0.0,96,0.00,,,0.00,WUHU216HW,2013-01-29 11:23:00,
2013-01-29 03:28:00,40.7,39.6,29.82,North,0,0.0,0.0,96,0.00,,,0.00,WUHU216HW,2013-01-29 11:28:00,
2013-01-29 03:33:00,40.7,39.6,29.82,North,0,0.0,0.0,96,0.00,,,0.00,WUHU216HW,2013-01-29 11:33:00,
2013-01-29 03:38:00,40.9,39.8,29.82,North,0,0.0,0.0,96,0.00,,,0.00,WUHU216HW,2013-01-29 11:38:00,
2013-01-29 03:43:00,40.7,39.6,29.83,North,0,0.0,0.0,96,0.00,,,0.00,WUHU216HW,2013-01-29 11:43:00,
2013-01-29 03:48:00,40.7,39.3,29.83,North,0,0.0,0.0,95,0.00,,,0.00,WUHU216HW,2013-01-29 11:48:00,
2013-01-29 03:53:00,40.9,39.5,29.83,North,0,0.0,0.0,95,0.00,,,0.00,WUHU216HW,2013-01-29 11:53:00,
2013-01-29 03:58:00,40.9,39.5,29.83,North,0,0.0,0.0,95,0.00,,,0.00,WUHU216HW,2013-01-29 11:58:00,
2013-01-29 04:03:00,40.9,39.5,29.83,North,0,0.0,0.0,95,0.00,,,0.00,WUHU216HW,2013-01-29 12:03:00,
2013-01-29 04:08:00,40.9,39.5,29.83,North,0,0.0,0.0,95,0.00,,,0.00,WUHU216HW,2013-01-29 12:08:00,
2013-01-29 04:13:00,40.9,39.5,29.83,North,0,0.0,0.0,95,0.00,,,0.00,WUHU216HW,2013-01-29 12:13:00,
2013-01-29 04:18:00,40.9,39.5,29.84,North,0,0.0,0.0,95,0.02,,,0.02,WUHU216HW,2013-01-29 12:18:00,
2013-01-29 04:23:00,40.9,39.5,29.84,North,0,0.0,0.0,95,0.02,,,0.02,WUHU216HW,2013-01-29 12:23:00,
2013-01-29 04:28:00,40.9,39.5,29.83,North,0,0.0,0.0,95,0.02,,,0.02,WUHU216HW,2013-01-29 12:28:00,
2013-01-29 04:33:00,40.9,39.5,29.84,North,0,0.0,0.0,95,0.02,,,0.02,WUHU216HW,2013-01-29 12:33:00,
2013-01-29 04:38:00,40.7,39.3,29.83,North,0,0.0,0.0,95,0.02,,,0.02,WUHU216HW,2013-01-29 12:38:00,
2013-01-29 04:43:00,40.7,39.3,29.84,North,0,0.0,0.0,95,0.02,,,0.02,WUHU216HW,2013-01-29 12:43:00,
2013-01-29 04:48:00,40.7,39.3,29.84,North,0,0.0,0.0,95,0.02,,,0.02,WUHU216HW,2013-01-29 12:48:00,
2013-01-29 04:53:00,40.7,39.3,29.84,North,0,0.0,0.0,95,0.02,,,0.02,WUHU216HW,2013-01-29 12:53:00,
2013-01-29 04:58:00,40.7,39.3,29.84,North,0,0.0,0.0,95,0.02,,,0.02,WUHU216HW,2013-01-29 12:58:00,
2013-01-29 05:03:00,40.7,39.3,29.85,North,0,0.0,0.0,95,0.02,,,0.02,WUHU216HW,2013-01-29 13:03:00,
2013-01-29 05:08:00,40.7,39.3,29.85,North,0,0.0,0.0,95,0.02,,,0.02,WUHU216HW,2013-01-29 13:08:00,
2013-01-29 05:13:00,40.7,39.3,29.85,North,0,0.0,0.0,95,0.02,,,0.02,WUHU216HW,2013-01-29 13:13:00,
2013-01-29 05:18:00,40.7,39.3,29.85,North,0,0.0,0.0,95,0.00,,,0.02,WUHU216HW,2013-01-29 13:18:00,
2013-01-29 05:23:00,40.7,39.3,29.86,North,0,0.0,0.0,95,0.00,,,0.02,WUHU216HW,2013-01-29 13:23:00,
2013-01-29 05:28:00,40.7,39.3,29.86,North,0,0.0,0.0,95,0.00,,,0.02,WUHU216HW,2013-01-29 13:28:00,
2013-01-29 05:33:00,40.7,39.3,29.86,North,0,0.0,0.0,95,0.01,,,0.03,WUHU216HW,2013-01-29 13:33:00,
2013-01-29 05:38:00,40.9,39.5,29.87,North,0,0.0,0.0,95,0.01,,,0.03,WUHU216HW,2013-01-29 13:38:00,
2013-01-29 05:43:00,40.9,39.5,29.87,North,0,0.0,0.0,95,0.01,,,0.03,WUHU216HW,2013-01-29 13:43:00,
2013-01-29 05:48:00,40.9,39.5,29.87,North,0,0.0,0.0,95,0.01,,,0.03,WUHU216HW,2013-01-29 13:48:00,
2013-01-29 05:53:00,40.9,39.5,29.87,North,0,0.0,0.0,95,0.01,,,0.03,WUHU216HW,2013-01-29 13:53:00,
2013-01-29 05:58:00,40.9,39.5,29.87,North,0,0.0,0.0,95,0.01,,,0.03,WUHU216HW,2013-01-29 13:58:00,
2013-01-29 06:03:00,40.9,39.5,29.87,North,0,0.0,0.0,95,0.01,,,0.03,WUHU216HW,2013-01-29 14:03:00,
2013-01-29 06:08:00,40.9,39.5,29.87,North,0,0.0,0.0,95,0.01,,,0.03,WUHU216HW,2013-01-29 14:08:00,
2013-01-29 06:13:00,41.0,39.7,29.87,North,0,0.0,0.0,95,0.01,,,0.03,WUHU216HW,2013-01-29 14:13:00,
2013-01-29 06:18:00,40.9,39.5,29.87,North,0,0.0,0.0,95,0.01,,,0.03,WUHU216HW,2013-01-29 14:18:00,
2013-01-29 06:23:00,40.9,39.5,29.87,North,0,0.0,0.0,95,0.01,,,0.03,WUHU216HW,2013-01-29 14:23:00,
2013-01-29 06:28:00,40.9,39.5,29.88,North,0,0.0,0.0,95,0.01,,,0.03,WUHU216HW,2013-01-29 14:28:00,
2013-01-29 06:33:00,40.9,39.5,29.88,North,0,0.0,0.0,95,0.00,,,0.03,WUHU216HW,2013-01-29 14:33:00,
2013-01-29 06:38:00,40.9,39.5,29.87,North,0,0.0,0.0,95,0.00,,,0.03,WUHU216HW,2013-01-29 14:38:00,
2013-01-29 06:43:00,41.0,39.7,29.88,North,0,0.0,0.0,95,0.00,,,0.03,WUHU216HW,2013-01-29 14:43:00,
2013-01-29 06:48:00,40.9,39.5,29.88,North,0,0.0,0.0,95,0.00,,,0.03,WUHU216HW,2013-01-29 14:48:00,
2013-01-29 06:53:00,40.9,39.5,29.88,North,0,0.0,0.0,95,0.00,,,0.03,WUHU216HW,2013-01-29 14:53:00,
2013-01-29 06:58:00,40.9,39.5,29.88,North,0,0.0,0.0,95,0.00,,,0.03,WUHU216HW,2013-01-29 14:58:00,
2013-01-29 07:03:00,40.9,39.5,29.89,North,0,0.0,0.0,95,0.00,,,0.03,WUHU216HW,2013-01-29 15:03:00,
2013-01-29 07:08:00,40.9,39.5,29.89,North,0,0.0,0.0,95,0.00,,,0.03,WUHU216HW,2013-01-29 15:08:00,
2013-01-29 07:13:00,40.9,39.5,29.89,North,0,0.0,0.0,95,0.00,,,0.03,WUHU216HW,2013-01-29 15:13:00,
2013-01-29 07:18:00,40.9,39.5,29.89,North,0,0.0,0.0,95,0.00,,,0.03,WUHU216HW,2013-01-29 15:18:00,
2013-01-29 07:23:00,40.9,39.5,29.90,North,0,0.0,0.0,95,0.00,,,0.03,WUHU216HW,2013-01-29 15:23:00,
2013-01-29 07:28:00,41.0,39.7,29.90,North,0,0.0,0.0,95,0.00,,,0.03,WUHU216HW,2013-01-29 15:28:00,
2013-01-29 07:33:00,41.0,39.7,29.90,North,0,0.0,0.0,95,0.00,,,0.03,WUHU216HW,2013-01-29 15:33:00,
2013-01-29 07:38:00,41.0,39.7,29.91,North,0,0.0,0.0,95,0.00,,,0.03,WUHU216HW,2013-01-29 15:38:00,
2013-01-29 07:43:00,41.0,39.7,29.91,North,0,0.0,0.0,95,0.00,,,0.03,WUHU216HW,2013-01-29 15:43:00,
2013-01-29 07:48:00,41.0,39.7,29.91,North,0,0.0,0.0,95,0.00,,,0.03,WUHU216HW,2013-01-29 15:48:00,
2013-01-29 07:53:00,41.0,39.7,29.91,North,0,0.0,0.0,95,0.00,,,0.03,WUHU216HW,2013-01-29 15:53:00,
2013-01-29 07:58:00,40.9,39.5,29.91,North,0,0.0,0.0,95,0.00,,,0.03,WUHU216HW,2013-01-29 15:58:00,
2013-01-29 08:03:00,41.0,39.7,29.91,North,0,0.0,0.0,95,0.00,,,0.03,WUHU216HW,2013-01-29 16:03:00,
2013-01-29 08:08:00,41.0,39.7,29.91,North,0,0.0,0.0,95,0.00,,,0.03,WUHU216HW,2013-01-29 16:08:00,
2013-01-29 08:13:00,41.0,39.7,29.91,North,0,0.0,0.0,95,0.00,,,0.03,WUHU216HW,2013-01-29 16:13:00,
2013-01-29 08:18:00,41.0,39.7,29.91,North,0,0.0,0.0,95,0.00,,,0.03,WUHU216HW,2013-01-29 16:18:00,
2013-01-29 08:23:00,41.0,39.7,29.91,North,0,0.0,0.0,95,0.00,,,0.03,WUHU216HW,2013-01-29 16:23:00,
2013-01-29 08:28:00,41.0,39.7,29.92,North,0,0.0,0.0,95,0.00,,,0.03,WUHU216HW,2013-01-29 16:28:00,
2013-01-29 08:33:00,41.0,39.7,29.92,North,0,0.0,0.0,95,0.00,,,0.03,WUHU216HW,2013-01-29 16:33:00,
2013-01-29 08:38:00,41.0,39.7,29.92,North,0,0.0,0.0,95,0.00,,,0.03,WUHU216HW,2013-01-29 16:38:00,
2013-01-29 08:43:00,41.0,39.7,29.93,North,0,0.0,0.0,95,0.00,,,0.03,WUHU216HW,2013-01-29 16:43:00,
2013-01-29 08:48:00,41.0,39.7,29.93,North,0,0.0,0.0,95,0.00,,,0.03,WUHU216HW,2013-01-29 16:48:00,
2013-01-29 08:53:00,41.0,39.7,29.94,North,0,0.0,0.0,95,0.00,,,0.03,WUHU216HW,2013-01-29 16:53:00,
2013-01-29 08:58:00,41.0,39.7,29.93,North,0,0.0,0.0,95,0.00,,,0.03,WUHU216HW,2013-01-29 16:58:00,
2013-01-29 09:03:00,41.2,39.9,29.94,North,0,0.0,0.0,95,0.00,,,0.03,WUHU216HW,2013-01-29 17:03:00,
2013-01-29 09:08:00,41.2,39.9,29.94,North,0,0.0,0.0,95,0.00,,,0.03,WUHU216HW,2013-01-29 17:08:00,
2013-01-29 09:13:00,41.4,40.1,29.94,North,0,0.0,0.0,95,0.00,,,0.03,WUHU216HW,2013-01-29 17:13:00,
2013-01-29 09:18:00,41.4,40.1,29.94,North,0,0.0,0.0,95,0.00,,,0.03,WUHU216HW,2013-01-29 17:18:00,
2013-01-29 09:23:00,41.4,40.1,29.94,North,0,0.0,0.0,95,0.00,,,0.03,WUHU216HW,2013-01-29 17:23:00,
2013-01-29 09:28:00,41.4,40.1,29.95,North,0,0.0,0.0,95,0.01,,,0.04,WUHU216HW,2013-01-29 17:28:00,
2013-01-29 09:33:00,41.4,40.1,29.95,North,0,0.0,0.0,95,0.01,,,0.04,WUHU216HW,2013-01-29 17:33:00,
2013-01-29 09:38:00,41.4,40.1,29.95,North,0,0.0,0.0,95,0.02,,,0.05,WUHU216HW,2013-01-29 17:38:00,
2013-01-29 09:43:00,41.4,40.1,29.95,North,0,0.0,0.0,95,0.02,,,0.05,WUHU216HW,2013-01-29 17:43:00,
2013-01-29 09:48:00,41.6,40.2,29.96,North,0,0.0,0.0,95,0.02,,,0.05,WUHU216HW,2013-01-29 17:48:00,
2013-01-29 09:53:00,41.6,40.2,29.96,North,0,0.0,0.0,95,0.02,,,0.05,WUHU216HW,2013-01-29 17:53:00,
2013-01-29 09:58:00,41.8,40.4,29.96,North,0,0.0,0.0,95,0.02,,,0.05,WUHU216HW,2013-01-29 17:58:00,
2013-01-29 10:03:00,41.6,40.2,29.96,North,0,0.0,0.0,95,0.02,,,0.05,WUHU216HW,2013-01-29 18:03:00,
2013-01-29 10:08:00,41.8,40.4,29.96,North,0,0.0,0.0,95,0.02,,,0.05,WUHU216HW,2013-01-29 18:08:00,
2013-01-29 10:13:00,41.8,40.4,29.97,North,0,0.0,0.0,95,0.02,,,0.05,WUHU216HW,2013-01-29 18:13:00,
2013-01-29 10:18:00,41.8,40.4,29.97,North,0,0.0,0.0,95,0.02,,,0.05,WUHU216HW,2013-01-29 18:18:00,
2013-01-29 10:23:00,41.9,40.6,29.97,North,0,0.0,0.0,95,0.02,,,0.05,WUHU216HW,2013-01-29 18:23:00,
2013-01-29 10:28:00,42.1,40.8,29.97,North,0,0.0,0.0,95,0.01,,,0.05,WUHU216HW,2013-01-29 18:28:00,
2013-01-29 10:33:00,42.1,40.8,29.97,North,0,0.0,0.0,95,0.01,,,0.05,WUHU216HW,2013-01-29 18:33:00,
2013-01-29 10:38:00,42.1,40.8,29.98,North,0,0.0,0.0,95,0.00,,,0.05,WUHU216HW,2013-01-29 18:38:00,
2013-01-29 10:43:00,42.1,40.8,29.98,North,0,0.0,0.0,95,0.00,,,0.05,WUHU216HW,2013-01-29 18:43:00,
2013-01-29 10:48:00,42.3,41.0,29.98,North,0,0.0,0.0,95,0.00,,,0.05,WUHU216HW,2013-01-29 18:48:00,
2013-01-29 10:53:00,42.3,41.0,29.98,North,0,0.0,0.0,95,0.00,,,0.05,WUHU216HW,2013-01-29 18:53:00,
2013-01-29 10:58:00,42.3,41.0,29.98,North,0,0.0,0.0,95,0.00,,,0.05,WUHU216HW,2013-01-29 18:58:00,
2013-01-29 11:03:00,42.3,41.0,29.98,North,0,0.0,0.0,95,0.00,,,0.05,WUHU216HW,2013-01-29 19:03:00,
2013-01-29 11:08:00,42.3,41.0,29.98,North,0,0.0,0.0,95,0.00,,,0.05,WUHU216HW,2013-01-29 19:08:00,
2013-01-29 11:13:00,42.5,41.1,29.98,North,0,0.0,0.0,95,0.00,,,0.05,WUHU216HW,2013-01-29 19:13:00,
2013-01-29 11:18:00,42.5,41.1,29.98,North,0,0.0,0.0,95,0.00,,,0.05,WUHU216HW,2013-01-29 19:18:00,
2013-01-29 11:23:00,42.7,41.3,29.98,North,0,0.0,0.0,95,0.00,,,0.05,WUHU216HW,2013-01-29 19:23:00,
2013-01-29 11:28:00,42.7,41.3,29.99,North,0,0.0,0.0,95,0.02,,,0.07,WUHU216HW,2013-01-29 19:28:00,
2013-01-29 11:33:00,42.8,41.5,29.99,North,0,0.0,0.0,95,0.02,,,0.07,WUHU216HW,2013-01-29 19:33:00,
2013-01-29 11:38:00,42.8,41.5,29.99,North,0,0.0,0.0,95,0.02,,,0.07,WUHU216HW,2013-01-29 19:38:00,
2013-01-29 11:43:00,42.8,41.5,29.99,North,0,0.0,0.0,95,0.02,,,0.07,WUHU216HW,2013-01-29 19:43:00,
2013-01-29 11:48:00,43.0,41.7,29.99,North,0,0.0,0.0,95,0.02,,,0.07,WUHU216HW,2013-01-29 19:48:00,
2013-01-29 11:53:00,42.8,41.5,29.99,North,0,0.0,0.0,95,0.04,,,0.09,WUHU216HW,2013-01-29 19:53:00,
2013-01-29 11:58:00,42.8,41.5,29.99,North,0,0.0,0.0,95,0.04,,,0.09,WUHU216HW,2013-01-29 19:58:00,
2013-01-29 12:03:00,43.0,41.7,29.99,North,0,0.0,0.0,95,0.05,,,0.10,WUHU216HW,2013-01-29 20:03:00,
2013-01-29 12:08:00,43.0,41.7,29.99,North,0,0.0,0.0,95,0.05,,,0.10,WUHU216HW,2013-01-29 20:08:00,
2013-01-29 12:13:00,43.2,41.9,29.99,North,0,0.0,0.0,95,0.06,,,0.11,WUHU216HW,2013-01-29 20:13:00,
2013-01-29 12:18:00,43.0,41.7,29.99,North,0,0.0,0.0,95,0.06,,,0.11,WUHU216HW,2013-01-29 20:18:00,
2013-01-29 12:23:00,43.0,41.7,29.99,North,0,0.0,0.0,95,0.06,,,0.11,WUHU216HW,2013-01-29 20:23:00,
2013-01-29 12:28:00,43.2,41.9,29.99,North,0,0.0,0.0,95,0.05,,,0.12,WUHU216HW,2013-01-29 20:28:00,
2013-01-29 12:33:00,43.2,41.9,29.99,North,0,0.0,0.0,95,0.06,,,0.13,WUHU216HW,2013-01-29 20:33:00,
2013-01-29 12:38:00,43.2,41.9,29.99,North,0,0.0,0.0,95,0.06,,,0.13,WUHU216HW,2013-01-29 20:38:00,
2013-01-29 12:43:00,43.2,41.9,29.99,North,0,0.0,0.0,95,0.07,,,0.14,WUHU216HW,2013-01-29 20:43:00,
2013-01-29 12:48:00,43.2,41.9,29.99,North,0,0.0,0.0,95,0.08,,,0.15,WUHU216HW,2013-01-29 20:48:00,
2013-01-29 12:53:00,43.4,42.0,29.99,North,0,0.0,0.0,95,0.07,,,0.16,WUHU216HW,2013-01-29 20:53:00,
2013-01-29 12:58:00,43.4,42.0,29.99,North,0,0.0,0.0,95,0.07,,,0.17,WUHU216HW,2013-01-29 20:58:00,
2013-01-29 13:03:00,43.4,42.0,29.99,North,0,0.0,0.0,95,0.08,,,0.18,WUHU216HW,2013-01-29 21:03:00,
2013-01-29 13:08:00,43.4,42.0,29.99,North,0,0.0,0.0,95,0.08,,,0.18,WUHU216HW,2013-01-29 21:08:00,
2013-01-29 13:13:00,43.6,42.2,29.99,North,0,0.0,0.0,95,0.08,,,0.19,WUHU216HW,2013-01-29 21:13:00,
2013-01-29 13:18:00,43.6,42.2,29.99,North,0,0.0,0.0,95,0.09,,,0.20,WUHU216HW,2013-01-29 21:18:00,
2013-01-29 13:23:00,43.6,42.2,29.99,North,0,0.0,0.0,95,0.09,,,0.20,WUHU216HW,2013-01-29 21:23:00,
2013-01-29 13:28:00,43.4,42.0,29.99,North,0,0.0,0.0,95,0.09,,,0.21,WUHU216HW,2013-01-29 21:28:00,
2013-01-29 13:33:00,43.2,41.9,30.00,North,0,0.0,0.0,95,0.09,,,0.22,WUHU216HW,2013-01-29 21:33:00,
2013-01-29 13:38:00,43.2,41.9,30.00,North,0,0.0,0.0,95,0.10,,,0.23,WUHU216HW,2013-01-29 21:38:00,
2013-01-29 13:43:00,43.4,42.0,30.00,North,0,0.0,0.0,95,0.09,,,0.23,WUHU216HW,2013-01-29 21:43:00,
2013-01-29 13:48:00,43.6,42.2,30.00,North,0,0.0,0.0,95,0.09,,,0.24,WUHU216HW,2013-01-29 21:48:00,
2013-01-29 13:53:00,43.6,42.2,30.00,North,0,0.0,0.0,95,0.09,,,0.25,WUHU216HW,2013-01-29 21:53:00,
2013-01-29 13:58:00,43.6,42.2,30.00,North,0,0.0,0.0,95,0.09,,,0.26,WUHU216HW,2013-01-29 21:58:00,
2013-01-29 14:03:00,43.4,42.0,30.00,North,0,0.0,0.0,95,0.08,,,0.26,WUHU216HW,2013-01-29 22:03:00,
2013-01-29 14:08:00,43.4,42.0,30.00,North,0,0.0,0.0,95,0.09,,,0.27,WUHU216HW,2013-01-29 22:08:00,
2013-01-29 14:13:00,43.4,42.0,30.00,North,0,0.0,0.0,95,0.08,,,0.27,WUHU216HW,2013-01-29 22:13:00,
2013-01-29 14:18:00,43.6,42.2,30.00,North,0,0.0,0.0,95,0.08,,,0.28,WUHU216HW,2013-01-29 22:18:00,
2013-01-29 14:23:00,43.6,42.2,30.00,North,0,0.0,0.0,95,0.09,,,0.29,WUHU216HW,2013-01-29 22:23:00,
2013-01-29 14:28:00,43.6,42.2,30.00,North,0,0.0,0.0,95,0.08,,,0.29,WUHU216HW,2013-01-29 22:28:00,
2013-01-29 14:33:00,43.6,42.2,30.00,North,0,0.0,0.0,95,0.08,,,0.30,WUHU216HW,2013-01-29 22:33:00,
2013-01-29 14:38:00,43.6,42.2,30.00,North,0,0.0,0.0,95,0.08,,,0.31,WUHU216HW,2013-01-29 22:38:00,
2013-01-29 14:43:00,43.4,42.0,30.01,North,0,0.0,0.0,95,0.08,,,0.31,WUHU216HW,2013-01-29 22:43:00,
2013-01-29 14:48:00,43.2,41.9,30.01,North,0,0.0,0.0,95,0.08,,,0.32,WUHU216HW,2013-01-29 22:48:00,
2013-01-29 14:53:00,43.4,42.0,30.01,North,0,0.0,0.0,95,0.07,,,0.32,WUHU216HW,2013-01-29 22:53:00,
2013-01-29 14:58:00,43.4,42.0,30.01,North,0,0.0,0.0,95,0.07,,,0.33,WUHU216HW,2013-01-29 22:58:00,
2013-01-29 15:03:00,43.4,42.0,30.00,North,0,0.0,0.0,95,0.07,,,0.33,WUHU216HW,2013-01-29 23:03:00,
2013-01-29 15:08:00,43.4,42.0,30.00,North,0,0.0,0.0,95,0.06,,,0.33,WUHU216HW,2013-01-29 23:08:00,
2013-01-29 15:13:00,43.6,42.2,30.00,North,0,0.0,0.0,95,0.07,,,0.34,WUHU216HW,2013-01-29 23:13:00,
2013-01-29 15:18:00,43.4,42.0,30.00,North,0,0.0,0.0,95,0.06,,,0.34,WUHU216HW,2013-01-29 23:18:00,
2013-01-29 15:23:00,43.2,41.6,30.01,North,0,0.0,0.0,94,0.05,,,0.34,WUHU216HW,2013-01-29 23:23:00,
2013-01-29 15:28:00,43.2,41.6,30.01,North,0,0.0,0.0,94,0.06,,,0.35,WUHU216HW,2013-01-29 23:28:00,
2013-01-29 15:33:00,43.0,41.4,30.01,North,0,0.0,0.0,94,0.05,,,0.35,WUHU216HW,2013-01-29 23:33:00,
2013-01-29 15:38:00,42.8,41.2,30.02,North,0,0.0,0.0,94,0.05,,,0.36,WUHU216HW,2013-01-29 23:38:00,
2013-01-29 15:43:00,42.8,41.2,30.02,North,0,0.0,0.0,94,0.06,,,0.37,WUHU216HW,2013-01-29 23:43:00,
2013-01-29 15:48:00,42.8,41.2,30.02,North,0,0.0,0.0,94,0.05,,,0.37,WUHU216HW,2013-01-29 23:48:00,
2013-01-29 15:53:00,42.8,41.2,30.01,North,0,0.0,0.0,94,0.06,,,0.38,WUHU216HW,2013-01-29 23:53:00,
2013-01-29 15:58:00,42.8,41.2,30.01,North,0,0.0,0.0,94,0.06,,,0.39,WUHU216HW,2013-01-29 23:58:00,
2013-01-29 16:03:00,42.8,41.2,30.01,North,0,0.0,0.0,94,0.06,,,0.39,WUHU216HW,2013-01-30 00:03:00,
2013-01-29 16:08:00,42.8,41.2,30.01,North,0,0.0,0.0,94,0.06,,,0.39,WUHU216HW,2013-01-30 00:08:00,
2013-01-29 16:13:00,42.7,41.0,30.01,North,0,0.0,0.0,94,0.05,,,0.39,WUHU216HW,2013-01-30 00:13:00,
2013-01-29 16:18:00,42.5,40.6,30.01,North,0,0.0,0.0,93,0.06,,,0.40,WUHU216HW,2013-01-30 00:18:00,
2013-01-29 16:23:00,42.5,40.9,30.01,North,0,0.0,0.0,94,0.06,,,0.40,WUHU216HW,2013-01-30 00:23:00,
2013-01-29 16:28:00,42.3,40.7,30.02,North,0,0.0,0.0,94,0.05,,,0.40,WUHU216HW,2013-01-30 00:28:00,
2013-01-29 16:33:00,42.1,40.5,30.01,North,0,0.0,0.0,94,0.05,,,0.40,WUHU216HW,2013-01-30 00:33:00,
2013-01-29 16:38:00,42.1,40.5,30.01,North,0,0.0,0.0,94,0.04,,,0.40,WUHU216HW,2013-01-30 00:38:00,
2013-01-29 16:43:00,42.1,40.2,30.01,North,0,0.0,0.0,93,0.03,,,0.40,WUHU216HW,2013-01-30 00:43:00,
2013-01-29 16:48:00,42.1,40.2,30.02,North,0,0.0,0.0,93,0.03,,,0.40,WUHU216HW,2013-01-30 00:48:00,
2013-01-29 16:53:00,41.9,40.1,30.01,North,0,0.0,0.0,93,0.02,,,0.40,WUHU216HW,2013-01-30 00:53:00,
2013-01-29 16:58:00,41.9,40.3,30.02,North,0,0.0,0.0,94,0.01,,,0.40,WUHU216HW,2013-01-30 00:58:00,
2013-01-29 17:03:00,41.9,40.3,30.02,North,0,0.0,0.0,94,0.01,,,0.40,WUHU216HW,2013-01-30 01:03:00,
2013-01-29 17:08:00,41.8,40.1,30.02,North,0,0.0,0.0,94,0.01,,,0.40,WUHU216HW,2013-01-30 01:08:00,
2013-01-29 17:13:00,41.8,40.1,30.02,North,0,0.0,0.0,94,0.01,,,0.40,WUHU216HW,2013-01-30 01:13:00,
2013-01-29 17:18:00,41.8,40.1,30.02,North,0,0.0,0.0,94,0.00,,,0.40,WUHU216HW,2013-01-30 01:18:00,
2013-01-29 17:23:00,41.8,40.1,30.02,North,0,0.0,0.0,94,0.00,,,0.40,WUHU216HW,2013-01-30 01:23:00,
2013-01-29 17:28:00,41.8,40.1,30.02,North,0,0.0,0.0,94,0.00,,,0.40,WUHU216HW,2013-01-30 01:28:00,
2013-01-29 17:33:00,41.6,40.0,30.02,North,0,0.0,0.0,94,0.00,,,0.40,WUHU216HW,2013-01-30 01:33:00,
2013-01-29 17:38:00,41.6,40.0,30.02,North,0,0.0,0.0,94,0.00,,,0.40,WUHU216HW,2013-01-30 01:38:00,
2013-01-29 17:43:00,41.4,39.8,30.02,North,0,0.0,0.0,94,0.00,,,0.40,WUHU216HW,2013-01-30 01:43:00,
2013-01-29 17:48:00,41.4,39.5,30.02,North,0,0.0,0.0,93,0.00,,,0.40,WUHU216HW,2013-01-30 01:48:00,
2013-01-29 17:53:00,41.2,39.6,30.02,North,0,0.0,0.0,94,0.00,,,0.40,WUHU216HW,2013-01-30 01:53:00,
2013-01-29 17:58:00,41.0,39.4,30.02,North,0,0.0,0.0,94,0.00,,,0.40,WUHU216HW,2013-01-30 01:58:00,
2013-01-29 18:03:00,41.0,39.4,30.02,North,0,0.0,0.0,94,0.00,,,0.40,WUHU216HW,2013-01-30 02:03:00,
2013-01-29 18:08:00,40.9,39.2,30.02,North,0,0.0,0.0,94,0.00,,,0.40,WUHU216HW,2013-01-30 02:08:00,
2013-01-29 18:13:00,40.9,39.2,30.02,North,0,0.0,0.0,94,0.01,,,0.41,WUHU216HW,2013-01-30 02:13:00,
2013-01-29 18:18:00,40.9,39.2,30.01,North,0,0.0,0.0,94,0.01,,,0.41,WUHU216HW,2013-01-30 02:18:00,
2013-01-29 18:23:00,41.0,39.4,30.02,North,0,0.0,0.0,94,0.01,,,0.41,WUHU216HW,2013-01-30 02:23:00,
2013-01-29 18:28:00,41.0,39.4,30.01,North,0,0.0,0.0,94,0.02,,,0.42,WUHU216HW,2013-01-30 02:28:00,
2013-01-29 18:33:00,41.0,39.4,30.01,North,0,0.0,0.0,94,0.02,,,0.42,WUHU216HW,2013-01-30 02:33:00,
2013-01-29 18:38:00,41.0,39.4,30.01,North,0,0.0,0.0,94,0.02,,,0.42,WUHU216HW,2013-01-30 02:38:00,
2013-01-29 18:43:00,41.0,39.4,30.01,North,0,0.0,0.0,94,0.03,,,0.43,WUHU216HW,2013-01-30 02:43:00,
2013-01-29 18:48:00,41.0,39.4,30.01,North,0,0.0,0.0,94,0.04,,,0.44,WUHU216HW,2013-01-30 02:48:00,
2013-01-29 18:53:00,41.0,39.4,30.02,North,0,0.0,0.0,94,0.05,,,0.45,WUHU216HW,2013-01-30 02:53:00,
2013-01-29 18:58:00,41.0,39.4,30.02,North,0,0.0,0.0,94,0.06,,,0.46,WUHU216HW,2013-01-30 02:58:00,
2013-01-29 19:03:00,41.0,39.4,30.02,North,0,0.0,0.0,94,0.07,,,0.47,WUHU216HW,2013-01-30 03:03:00,
2013-01-29 19:08:00,41.0,39.4,30.02,North,0,0.0,0.0,94,0.07,,,0.47,WUHU216HW,2013-01-30 03:08:00,
2013-01-29 19:13:00,41.0,39.7,30.02,North,0,0.0,0.0,95,0.07,,,0.48,WUHU216HW,2013-01-30 03:13:00,
2013-01-29 19:18:00,41.0,39.7,30.02,North,0,0.0,0.0,95,0.08,,,0.49,WUHU216HW,2013-01-30 03:18:00,
2013-01-29 19:23:00,41.0,39.7,30.02,North,0,0.0,0.0,95,0.09,,,0.50,WUHU216HW,2013-01-30 03:23:00,
2013-01-29 19:28:00,41.2,39.9,30.02,North,0,0.0,0.0,95,0.09,,,0.51,WUHU216HW,2013-01-30 03:28:00,
2013-01-29 19:33:00,41.2,39.9,30.02,North,0,0.0,0.0,95,0.10,,,0.52,WUHU216HW,2013-01-30 03:33:00,
2013-01-29 19:38:00,41.2,39.9,30.02,North,0,0.0,0.0,95,0.12,,,0.54,WUHU216HW,2013-01-30 03:38:00,
2013-01-29 19:43:00,41.2,39.9,30.02,North,0,0.0,0.0,95,0.12,,,0.55,WUHU216HW,2013-01-30 03:43:00,
2013-01-29 19:48:00,41.4,40.1,30.02,North,0,0.0,0.0,95,0.12,,,0.56,WUHU216HW,2013-01-30 03:48:00,
2013-01-29 19:53:00,41.4,40.1,30.02,North,0,0.0,0.0,95,0.12,,,0.57,WUHU216HW,2013-01-30 03:53:00,
2013-01-29 19:58:00,41.4,40.1,30.02,North,0,0.0,0.0,95,0.12,,,0.58,WUHU216HW,2013-01-30 03:58:00,
2013-01-29 20:03:00,41.4,40.1,30.02,North,0,0.0,0.0,95,0.12,,,0.59,WUHU216HW,2013-01-30 04:03:00,
2013-01-29 20:08:00,41.4,40.1,30.02,North,0,0.0,0.0,95,0.14,,,0.61,WUHU216HW,2013-01-30 04:08:00,
2013-01-29 20:13:00,41.4,40.1,30.02,North,0,0.0,0.0,95,0.13,,,0.61,WUHU216HW,2013-01-30 04:13:00,
2013-01-29 20:18:00,41.4,40.1,30.02,North,0,0.0,0.0,95,0.14,,,0.63,WUHU216HW,2013-01-30 04:18:00,
2013-01-29 20:23:00,41.4,40.1,30.02,North,0,0.0,0.0,95,0.13,,,0.63,WUHU216HW,2013-01-30 04:23:00,
2013-01-29 20:28:00,41.4,40.1,30.02,North,0,0.0,0.0,95,0.14,,,0.65,WUHU216HW,2013-01-30 04:28:00,
2013-01-29 20:33:00,41.4,40.1,30.02,North,0,0.0,0.0,95,0.14,,,0.66,WUHU216HW,2013-01-30 04:33:00,
2013-01-29 20:38:00,41.6,40.2,30.01,North,0,0.0,0.0,95,0.13,,,0.67,WUHU216HW,2013-01-30 04:38:00,
2013-01-29 20:43:00,41.6,40.2,30.02,North,0,0.0,0.0,95,0.12,,,0.67,WUHU216HW,2013-01-30 04:43:00,
2013-01-29 20:48:00,41.6,40.2,30.01,North,0,0.0,0.0,95,0.12,,,0.68,WUHU216HW,2013-01-30 04:48:00,
2013-01-29 20:53:00,41.6,40.2,30.02,North,0,0.0,0.0,95,0.11,,,0.68,WUHU216HW,2013-01-30 04:53:00,
2013-01-29 20:58:00,41.8,40.4,30.02,North,0,0.0,0.0,95,0.10,,,0.68,WUHU216HW,2013-01-30 04:58:00,
2013-01-29 21:00:00,41.8,40.4,30.02,North,0,0.0,0.0,95,0.09,,,0.68,WUHU216HW,2013-01-30 05:00:00,
2013-01-29 21:01:00,41.8,40.4,30.02,North,0,0.0,0.0,95,0.09,,,0.68,WUHU216HW,2013-01-30 05:01:00,
2013-01-29 21:03:00,41.8,40.4,30.02,North,0,0.0,0.0,95,0.11,,,0.70,WUHU216HW,2013-01-30 05:03:00,
2013-01-29 21:08:00,41.8,40.4,30.02,North,0,0.0,0.0,95,0.09,,,0.70,WUHU216HW,2013-01-30 05:08:00,
2013-01-29 21:13:00,41.8,40.4,30.02,North,0,0.0,0.0,95,0.09,,,0.70,WUHU216HW,2013-01-30 05:13:00,
2013-01-29 21:18:00,41.8,40.4,30.02,North,0,0.0,0.0,95,0.07,,,0.70,WUHU216HW,2013-01-30 05:18:00,
2013-01-29 21:23:00,41.9,40.6,30.01,North,0,0.0,0.0,95,0.09,,,0.72,WUHU216HW,2013-01-30 05:23:00,
2013-01-29 21:28:00,41.9,40.6,30.01,North,0,0.0,0.0,95,0.08,,,0.73,WUHU216HW,2013-01-30 05:28:00,
2013-01-29 21:33:00,41.9,40.6,30.01,North,0,0.0,0.0,95,0.08,,,0.74,WUHU216HW,2013-01-30 05:33:00,
2013-01-29 21:38:00,42.1,40.8,30.01,North,0,0.0,0.0,95,0.07,,,0.74,WUHU216HW,2013-01-30 05:38:00,
2013-01-29 21:43:00,42.1,40.8,30.01,North,0,0.0,0.0,95,0.08,,,0.75,WUHU216HW,2013-01-30 05:43:00,
2013-01-29 21:48:00,42.1,40.8,30.01,North,0,0.0,0.0,95,0.07,,,0.75,WUHU216HW,2013-01-30 05:48:00,
2013-01-29 21:53:00,42.3,41.0,30.01,North,0,0.0,0.0,95,0.08,,,0.76,WUHU216HW,2013-01-30 05:53:00,
2013-01-29 21:58:00,42.3,41.0,30.01,North,0,0.0,0.0,95,0.09,,,0.77,WUHU216HW,2013-01-30 05:58:00,
2013-01-29 22:03:00,42.5,41.1,30.01,North,0,0.0,0.0,95,0.07,,,0.77,WUHU216HW,2013-01-30 06:03:00,
2013-01-29 22:08:00,42.5,41.1,30.01,North,0,0.0,0.0,95,0.08,,,0.78,WUHU216HW,2013-01-30 06:08:00,
2013-01-29 22:13:00,42.5,41.1,30.01,North,0,0.0,0.0,95,0.08,,,0.78,WUHU216HW,2013-01-30 06:13:00,
2013-01-29 22:18:00,42.7,41.3,30.01,North,0,0.0,0.0,95,0.08,,,0.78,WUHU216HW,2013-01-30 06:18:00,
2013-01-29 22:23:00,42.7,41.3,30.00,North,0,0.0,0.0,95,0.06,,,0.78,WUHU216HW,2013-01-30 06:23:00,
2013-01-29 22:28:00,42.8,41.5,30.00,North,0,0.0,0.0,95,0.06,,,0.79,WUHU216HW,2013-01-30 06:28:00,
2013-01-29 22:33:00,42.8,41.5,30.01,North,0,0.0,0.0,95,0.05,,,0.79,WUHU216HW,2013-01-30 06:33:00,
2013-01-29 22:38:00,43.0,41.7,30.00,North,0,0.0,0.0,95,0.05,,,0.79,WUHU216HW,2013-01-30 06:38:00,
2013-01-29 22:43:00,43.0,41.7,30.00,North,0,0.0,0.0,95,0.04,,,0.79,WUHU216HW,2013-01-30 06:43:00,
2013-01-29 22:48:00,43.2,41.9,30.01,North,0,0.0,0.0,95,0.05,,,0.80,WUHU216HW,2013-01-30 06:48:00,
2013-01-29 22:53:00,43.2,41.9,30.01,North,0,0.0,0.0,95,0.04,,,0.80,WUHU216HW,2013-01-30 06:53:00,
2013-01-29 22:58:00,43.2,41.9,30.01,North,0,0.0,0.0,95,0.03,,,0.80,WUHU216HW,2013-01-30 06:58:00,
2013-01-29 23:03:00,43.4,42.0,30.01,North,0,0.0,0.0,95,0.03,,,0.80,WUHU216HW,2013-01-30 07:03:00,
2013-01-29 23:08:00,43.4,42.0,30.01,North,0,0.0,0.0,95,0.02,,,0.80,WUHU216HW,2013-01-30 07:08:00,
2013-01-29 23:13:00,43.6,42.2,30.01,North,0,0.0,0.0,95,0.02,,,0.80,WUHU216HW,2013-01-30 07:13:00,
2013-01-29 23:18:00,43.6,42.2,30.01,North,0,0.0,0.0,95,0.02,,,0.80,WUHU216HW,2013-01-30 07:18:00,
2013-01-29 23:23:00,43.6,42.2,30.01,North,0,0.0,0.0,95,0.03,,,0.81,WUHU216HW,2013-01-30 07:23:00,
2013-01-29 23:28:00,43.6,42.2,30.02,North,0,0.0,0.0,95,0.02,,,0.81,WUHU216HW,2013-01-30 07:28:00,
2013-01-29 23:33:00,43.7,42.4,30.02,North,0,0.0,0.0,95,0.03,,,0.82,WUHU216HW,2013-01-30 07:33:00,
2013-01-29 23:38:00,43.7,42.4,30.02,North,0,0.0,0.0,95,0.03,,,0.82,WUHU216HW,2013-01-30 07:38:00,
2013-01-29 23:43:00,43.7,42.4,30.02,North,0,0.0,0.0,95,0.03,,,0.82,WUHU216HW,2013-01-30 07:43:00,
2013-01-29 23:48:00,43.9,42.6,30.02,North,0,0.0,0.0,95,0.03,,,0.83,WUHU216HW,2013-01-30 07:48:00,
2013-01-29 23:53:00,43.9,42.6,30.02,North,0,0.0,0.0,95,0.03,,,0.83,WUHU216HW,2013-01-30 07:53:00,
2013-01-29 23:58:00,43.9,42.6,30.02,North,0,0.0,0.0,95,0.04,,,0.84,WUHU216HW,2013-01-30 07:58:00,